Time;durP1;ratioP1;P1;durP2;ratioP2;P2;SDS_P1;SDS_P2;PMS_P1;PMS_P2;Temp;Humidity;BMP_temperature;BMP_pressure;BME280_temperature;BME280_humidity;BME280_pressure;Samples;Min_cycle;Max_cycle;Signal;HPM_P1;HPM_P2
2021/06/19 00:02:59;;;;;;;45.60;31.83;;;14.30;99.90;;;;;;21164080;28;20538;-47
2021/06/19 00:13:01;;;;;;;45.00;29.60;;;14.90;99.90;;;;;;21163067;28;20035;-46
2021/06/19 00:23:04;;;;;;;43.63;29.63;;;14.80;99.90;;;;;;21162621;28;20097;-44
2021/06/19 00:33:06;;;;;;;41.45;28.90;;;14.50;99.90;;;;;;21163320;28;20160;-44
2021/06/19 00:43:08;;;;;;;37.17;26.35;;;14.60;99.90;;;;;;21160316;28;20488;-44
2021/06/19 00:53:10;;;;;;;36.28;24.92;;;14.60;99.90;;;;;;21159820;28;20031;-44
2021/06/19 01:03:14;;;;;;;29.25;18.90;;;14.40;99.90;;;;;;21158762;28;20081;-45
2021/06/19 01:13:16;;;;;;;21.67;16.05;;;14.20;99.90;;;;;;21159058;28;20031;-44
2021/06/19 01:23:18;;;;;;;22.38;16.20;;;14.10;99.90;;;;;;21157964;28;20556;-44
2021/06/19 01:33:20;;;;;;;21.42;16.02;;;13.80;99.90;;;;;;21156893;28;20028;-44
2021/06/19 01:43:23;;;;;;;23.73;16.95;;;13.60;99.90;;;;;;21156849;28;20028;-47
2021/06/19 01:53:25;;;;;;;18.52;14.20;;;13.60;99.90;;;;;;21155827;28;20023;-46
2021/06/19 02:03:27;;;;;;;20.85;15.05;;;13.70;99.90;;;;;;21155902;28;20027;-44
2021/06/19 02:13:30;;;;;;;27.17;18.83;;;13.90;99.90;;;;;;21156278;28;20023;-47
2021/06/19 02:23:32;;;;;;;20.70;16.08;;;14.70;99.90;;;;;;21162561;28;20092;-44
2021/06/19 02:33:34;;;;;;;25.52;19.08;;;14.80;99.90;;;;;;21170715;28;20073;-43
2021/06/19 02:43:36;;;;;;;34.58;23.80;;;14.40;99.90;;;;;;21169581;28;20028;-46
2021/06/19 02:53:38;;;;;;;20.23;14.98;;;14.80;99.90;;;;;;21169212;28;20391;-44
2021/06/19 03:03:39;;;;;;;21.88;14.35;;;14.80;99.90;;;;;;21168045;28;20062;-44
2021/06/19 03:13:41;;;;;;;18.10;13.63;;;14.80;99.90;;;;;;21167720;28;20089;-45
2021/06/19 03:23:43;;;;;;;11.82;10.38;;;15.30;99.90;;;;;;21166757;28;20044;-45
2021/06/19 03:33:45;;;;;;;30.85;21.10;;;15.50;99.90;;;;;;21165286;28;20625;-44
2021/06/19 03:43:47;;;;;;;9.77;8.43;;;15.70;99.90;;;;;;21165412;28;20039;-46
2021/06/19 03:53:48;;;;;;;12.05;8.40;;;15.80;99.90;;;;;;21164687;28;20031;-45
2021/06/19 04:03:50;;;;;;;14.57;9.55;;;16.80;99.90;;;;;;21163948;28;20035;-45
2021/06/19 04:13:52;;;;;;;17.75;12.85;;;17.20;99.90;;;;;;21164028;28;20039;-44
2021/06/19 04:23:54;;;;;;;8.98;7.80;;;17.50;99.90;;;;;;21162903;28;20051;-49
2021/06/19 04:33:56;;;;;;;10.23;6.20;;;17.90;99.90;;;;;;21161592;28;20032;-49
2021/06/19 04:53:59;;;;;;;11.07;4.80;;;18.30;99.90;;;;;;21159791;28;20088;-44
2021/06/19 05:04:01;;;;;;;10.82;5.45;;;17.80;99.90;;;;;;21159496;28;20036;-44
2021/06/19 05:14:03;;;;;;;9.52;5.30;;;17.50;99.90;;;;;;21158611;28;20381;-44
2021/06/19 05:24:06;;;;;;;7.13;4.95;;;17.20;99.90;;;;;;21159662;28;20413;-44
2021/06/19 05:34:08;;;;;;;11.90;3.85;;;17.10;99.90;;;;;;21157801;28;20210;-45
2021/06/19 05:44:10;;;;;;;9.38;3.40;;;17.30;99.90;;;;;;21159053;28;20031;-44
2021/06/19 05:54:12;;;;;;;15.85;6.25;;;18.90;97.60;;;;;;21057925;28;20040;-45
2021/06/19 06:04:13;;;;;;;13.05;9.05;;;19.90;99.90;;;;;;21091804;28;20036;-50
2021/06/19 06:14:15;;;;;;;8.05;4.90;;;19.90;99.90;;;;;;21074743;28;20036;-44
2021/06/19 06:24:17;;;;;;;10.13;6.57;;;22.70;99.90;;;;;;21091438;28;20497;-45
2021/06/19 06:34:20;;;;;;;11.18;8.23;;;26.60;97.90;;;;;;21107609;28;20077;-45
2021/06/19 06:44:22;;;;;;;8.02;7.05;;;29.00;93.90;;;;;;21184232;28;20382;-47
2021/06/19 06:54:23;;;;;;;9.60;8.23;;;30.70;90.60;;;;;;21175198;28;20028;-46
2021/06/19 07:04:25;;;;;;;9.75;8.45;;;31.10;84.40;;;;;;21169097;28;20031;-45
2021/06/19 07:14:27;;;;;;;11.85;8.57;;;30.30;84.70;;;;;;21167296;28;20040;-49
2021/06/19 07:24:29;;;;;;;12.00;9.13;;;30.70;83.50;;;;;;21168354;28;20043;-45
2021/06/19 07:34:31;;;;;;;12.38;9.45;;;30.80;84.60;;;;;;21171198;28;20035;-45
2021/06/19 07:44:35;;;;;;;9.95;8.98;;;31.30;79.80;;;;;;21169721;28;20043;-45
2021/06/19 07:54:38;;;;;;;13.13;10.25;;;31.20;81.90;;;;;;21255550;27;20035;-46
2021/06/19 08:04:40;;;;;;;14.05;10.25;;;31.30;77.30;;;;;;21254347;27;20068;-45
2021/06/19 08:14:43;;;;;;;13.55;11.00;;;31.50;77.40;;;;;;21255406;27;20537;-47
2021/06/19 08:24:47;;;;;;;14.10;11.67;;;31.60;78.60;;;;;;21251530;27;20035;-47
2021/06/19 08:34:49;;;;;;;15.95;12.80;;;31.40;81.50;;;;;;21233364;27;20043;-45
2021/06/19 08:44:51;;;;;;;16.00;12.48;;;29.90;83.70;;;;;;21162413;28;20031;-45
2021/06/19 08:54:53;;;;;;;17.45;12.88;;;28.90;88.30;;;;;;21160645;28;20065;-46
2021/06/19 09:05:08;;;;;;;15.27;13.65;;;28.10;89.90;;;;;;21161425;28;20065;-45
2021/06/19 09:15:16;;;;;;;19.48;13.38;;;27.60;90.40;;;;;;21163325;28;20081;-46
2021/06/19 09:25:18;;;;;;;14.93;12.70;;;27.70;86.70;;;;;;21161574;28;20096;-45
2021/06/19 09:35:29;;;;;;;16.40;13.45;;;28.00;90.40;;;;;;21158000;28;20100;-47
2021/06/19 09:45:32;;;;;;;16.83;13.85;;;29.00;90.50;;;;;;21156517;28;20081;-45
2021/06/19 09:55:34;;;;;;;17.05;15.02;;;28.80;91.10;;;;;;21155613;28;20493;-45
2021/06/19 10:05:36;;;;;;;18.63;15.43;;;29.30;91.50;;;;;;21156242;28;20032;-45
2021/06/19 10:15:41;;;;;;;18.65;15.80;;;29.20;90.70;;;;;;21156034;28;20027;-47
2021/06/19 10:25:46;;;;;;;20.30;15.97;;;28.90;91.10;;;;;;21155178;28;20055;-45
2021/06/19 10:35:51;;;;;;;21.10;17.70;;;28.10;92.50;;;;;;21154123;28;20171;-45
2021/06/19 10:46:20;;;;;;;19.13;16.98;;;27.70;94.00;;;;;;21163809;28;20408;-46
2021/06/19 10:56:56;;;;;;;21.48;19.27;;;28.20;95.90;;;;;;21153734;28;20384;-45
2021/06/19 11:06:58;;;;;;;18.63;16.15;;;30.00;92.80;;;;;;21171365;28;20434;-45
2021/06/19 11:17:00;;;;;;;21.40;19.00;;;30.30;92.90;;;;;;21168899;28;20487;-46
2021/06/19 11:27:03;;;;;;;21.17;16.90;;;30.30;92.10;;;;;;21169712;28;20079;-50
2021/06/19 11:37:04;;;;;;;20.45;17.25;;;30.40;91.70;;;;;;21170302;28;20089;-45
2021/06/19 11:47:08;;;;;;;19.67;17.48;;;30.50;92.20;;;;;;21165744;28;20039;-46
2021/06/19 11:57:22;;;;;;;28.58;19.08;;;31.10;91.50;;;;;;21165234;28;20566;-46
2021/06/19 12:07:26;;;;;;;22.48;20.08;;;31.20;89.70;;;;;;21163072;28;20036;-45
2021/06/19 12:17:40;;;;;;;23.92;21.23;;;30.50;91.50;;;;;;21164805;28;20097;-47
2021/06/19 12:27:42;;;;;;;23.73;20.98;;;30.10;91.20;;;;;;21162514;28;20048;-47
2021/06/19 12:37:56;;;;;;;22.67;20.30;;;29.70;91.90;;;;;;21160763;28;20404;-45
2021/06/19 12:47:58;;;;;;;25.48;20.58;;;29.90;93.10;;;;;;21160856;28;20040;-44
2021/06/19 12:58:06;;;;;;;26.50;21.00;;;29.90;91.10;;;;;;21160319;28;20435;-46
2021/06/19 13:08:11;;;;;;;27.30;21.23;;;30.00;91.30;;;;;;21158415;28;20057;-50
2021/06/19 13:18:15;;;;;;;23.90;20.35;;;29.50;90.20;;;;;;21159187;28;20073;-46
2021/06/19 13:28:19;;;;;;;22.33;18.92;;;29.10;90.80;;;;;;21159634;28;20047;-45
2021/06/19 13:38:21;;;;;;;20.40;16.05;;;29.00;87.50;;;;;;21160308;28;20066;-50
2021/06/19 13:48:23;;;;;;;17.73;15.38;;;28.60;91.10;;;;;;21142834;28;20024;-47
2021/06/19 13:58:27;;;;;;;17.20;11.50;;;29.90;84.70;;;;;;21159567;28;20043;-45
2021/06/19 14:08:29;;;;;;;10.83;8.37;;;30.30;83.80;;;;;;21157150;28;20036;-47
2021/06/19 14:18:31;;;;;;;12.40;8.60;;;30.40;81.80;;;;;;21168113;28;20039;-45
2021/06/19 14:28:35;;;;;;;7.10;6.50;;;29.80;77.70;;;;;;21175494;28;20050;-47
2021/06/19 14:38:37;;;;;;;7.10;6.40;;;30.10;80.80;;;;;;21173743;28;20089;-51
2021/06/19 14:48:39;;;;;;;8.50;5.05;;;30.70;78.10;;;;;;21174242;28;20031;-46
2021/06/19 14:58:41;;;;;;;9.68;5.25;;;30.40;75.90;;;;;;21171301;28;20032;-47
2021/06/19 15:08:44;;;;;;;8.77;5.57;;;30.40;75.70;;;;;;21152312;28;20164;-45
2021/06/19 15:18:46;;;;;;;7.75;5.65;;;29.50;76.50;;;;;;21168578;28;20538;-45
2021/06/19 15:28:48;;;;;;;9.43;5.22;;;27.70;79.70;;;;;;21167327;28;20085;-45
2021/06/19 15:38:53;;;;;;;7.13;5.32;;;27.50;82.20;;;;;;21166490;28;20036;-45
2021/06/19 15:48:55;;;;;;;8.18;5.57;;;27.60;81.50;;;;;;21166740;28;20040;-45
2021/06/19 15:58:58;;;;;;;6.47;5.38;;;27.70;80.80;;;;;;21147686;28;20085;-46
2021/06/19 16:09:01;;;;;;;7.45;6.65;;;26.70;82.70;;;;;;21145281;28;20089;-45
2021/06/19 16:19:04;;;;;;;9.15;6.25;;;25.50;83.50;;;;;;21162986;28;20452;-45
2021/06/19 16:29:07;;;;;;;8.25;5.60;;;24.70;88.10;;;;;;21161764;28;20081;-49
2021/06/19 16:39:11;;;;;;;8.07;6.07;;;23.80;89.70;;;;;;21160521;28;20404;-44
2021/06/19 16:49:15;;;;;;;6.75;5.97;;;23.70;90.10;;;;;;21076149;28;20043;-50
2021/06/19 16:59:18;;;;;;;10.25;5.68;;;23.30;90.60;;;;;;21074851;28;20059;-48
2021/06/19 17:09:21;;;;;;;7.15;5.70;;;23.10;92.80;;;;;;21073349;28;20101;-46
2021/06/19 17:19:23;;;;;;;7.13;5.78;;;22.50;94.20;;;;;;21073154;28;20097;-50
2021/06/19 17:29:25;;;;;;;7.03;5.97;;;21.90;95.40;;;;;;21072872;28;20071;-46
2021/06/19 17:39:27;;;;;;;8.27;6.05;;;21.80;94.30;;;;;;21128683;28;20117;-44
2021/06/19 17:49:30;;;;;;;8.13;6.40;;;21.60;95.10;;;;;;21154832;28;20448;-45
2021/06/19 17:59:32;;;;;;;10.68;6.75;;;20.80;97.30;;;;;;21155751;28;20082;-46
2021/06/19 18:09:35;;;;;;;10.57;7.45;;;20.50;98.40;;;;;;21155760;28;20036;-44
2021/06/19 18:19:38;;;;;;;8.40;6.88;;;20.00;99.30;;;;;;21155559;28;20093;-48
2021/06/19 18:29:40;;;;;;;11.20;7.28;;;19.50;99.90;;;;;;21137154;28;20105;-45
2021/06/19 18:39:42;;;;;;;10.40;5.82;;;18.80;99.90;;;;;;21154928;28;20401;-45
2021/06/19 18:49:48;;;;;;;13.02;6.60;;;18.30;99.90;;;;;;21155357;28;20066;-47
2021/06/19 18:59:50;;;;;;;12.10;5.13;;;18.00;99.90;;;;;;21153450;28;20032;-45
2021/06/19 19:09:53;;;;;;;14.90;5.85;;;17.70;99.90;;;;;;21166430;28;20039;-44
2021/06/19 19:19:55;;;;;;;10.55;4.55;;;17.50;99.90;;;;;;21167434;28;20401;-50
2021/06/19 19:29:58;;;;;;;18.02;5.78;;;17.10;99.90;;;;;;21166681;28;20396;-44
2021/06/19 19:40:00;;;;;;;17.05;4.20;;;16.70;99.90;;;;;;21166750;28;20035;-49
2021/06/19 19:50:04;;;;;;;16.35;4.18;;;16.40;99.70;;;;;;21164924;28;20152;-49
2021/06/19 20:00:08;;;;;;;13.45;3.50;;;16.30;99.60;;;;;;21165085;28;20461;-47
2021/06/19 20:10:10;;;;;;;12.80;3.53;;;16.10;99.20;;;;;;21163140;28;20031;-44
2021/06/19 20:20:13;;;;;;;14.10;3.72;;;16.10;98.50;;;;;;21162743;28;20101;-50
2021/06/19 20:30:16;;;;;;;17.27;4.05;;;16.10;97.00;;;;;;21162726;28;20151;-45
2021/06/19 20:40:20;;;;;;;14.20;3.80;;;16.00;97.10;;;;;;21161668;28;20039;-44
2021/06/19 20:50:22;;;;;;;17.88;3.28;;;16.00;97.90;;;;;;21160982;28;20040;-44
2021/06/19 21:00:28;;;;;;;13.25;3.72;;;15.90;96.50;;;;;;21160522;28;20097;-44
2021/06/19 21:10:31;;;;;;;11.63;3.08;;;15.90;97.20;;;;;;21161339;28;20576;-47
2021/06/19 21:20:35;;;;;;;13.07;3.63;;;15.80;96.80;;;;;;21159140;28;20843;-45
2021/06/19 21:30:37;;;;;;;12.98;3.95;;;15.80;97.90;;;;;;21157453;28;20031;-44
2021/06/19 21:40:39;;;;;;;19.33;3.17;;;16.00;96.70;;;;;;21157369;28;20036;-47
2021/06/19 21:50:44;;;;;;;16.98;3.60;;;16.00;97.50;;;;;;21156776;28;20084;-44
2021/06/19 22:00:51;;;;;;;18.73;3.70;;;15.80;97.00;;;;;;21139538;28;20460;-49
2021/06/19 22:10:53;;;;;;;12.40;3.25;;;15.60;98.40;;;;;;21155669;28;20374;-45
2021/06/19 22:20:54;;;;;;;12.68;3.78;;;15.40;97.70;;;;;;21155093;28;20089;-44
2021/06/19 22:30:57;;;;;;;18.92;4.50;;;15.30;97.90;;;;;;21137119;28;20112;-45
2021/06/19 22:40:58;;;;;;;15.00;4.30;;;15.20;98.20;;;;;;21163707;28;20362;-44
2021/06/19 22:51:00;;;;;;;17.58;4.10;;;15.20;99.30;;;;;;21171237;28;20028;-44
2021/06/19 23:01:02;;;;;;;20.45;5.15;;;15.10;99.10;;;;;;21169617;28;20095;-48
2021/06/19 23:11:04;;;;;;;13.18;4.60;;;15.30;99.80;;;;;;21169267;28;20549;-44
2021/06/19 23:21:07;;;;;;;20.70;5.07;;;15.10;99.90;;;;;;21150053;28;20047;-45
2021/06/19 23:31:10;;;;;;;14.85;4.30;;;15.20;99.90;;;;;;21167754;28;20036;-49
2021/06/19 23:41:11;;;;;;;9.32;4.35;;;15.20;99.90;;;;;;21166779;28;20454;-45
2021/06/19 23:51:14;;;;;;;14.00;4.32;;;15.30;99.90;;;;;;21165068;28;20035;-45
